Flagstaff (FLG/KFLG)

Map

Destinations

Information

Location
Flagstaff, AZ
Local Time
18:03 / 6:03 pm
GMT Time
01:03 / 1:03 am
Gates
1
No FAA reported delays
METAR KFLG 240057Z VRB05KT 10SM CLR 23/07 A3024 RMK AO2 LTG DSNT S AND SW SLP148 T02330067
TAF KFLG 232325Z 2400/2424 22010KT P6SM VCSH BKN090 FM240200 VRB05KT P6SM SCT090 PROB30 2420/2424 VRB10G20KT TSRA BKN090CB